sensor_id;sensor_type;location;lat;lon;timestamp;pressure;altitude;pressure_sealevel;temperature;humidity
55373;BME280;70018;47.838;16.490;2023-11-22T00:02:17;99207.69;;;7.04;81.60
55373;BME280;70018;47.838;16.490;2023-11-22T00:04:44;99212.25;;;7.12;81.00
55373;BME280;70018;47.838;16.490;2023-11-22T00:07:11;99201.28;;;7.12;80.71
55373;BME280;70018;47.838;16.490;2023-11-22T00:09:38;99198.78;;;7.19;80.53
55373;BME280;70018;47.838;16.490;2023-11-22T00:12:05;99198.41;;;7.21;80.88
55373;BME280;70018;47.838;16.490;2023-11-22T00:14:32;99206.31;;;7.22;81.24
55373;BME280;70018;47.838;16.490;2023-11-22T00:17:00;99207.00;;;7.19;81.31
55373;BME280;70018;47.838;16.490;2023-11-22T00:19:28;99204.25;;;7.19;81.66
55373;BME280;70018;47.838;16.490;2023-11-22T00:21:57;99203.81;;;7.17;81.06
55373;BME280;70018;47.838;16.490;2023-11-22T00:24:23;99200.03;;;7.09;82.01
55373;BME280;70018;47.838;16.490;2023-11-22T00:26:50;99217.38;;;7.01;81.54
55373;BME280;70018;47.838;16.490;2023-11-22T00:29:16;99230.28;;;7.01;81.86
55373;BME280;70018;47.838;16.490;2023-11-22T00:31:43;99231.66;;;6.95;81.52
55373;BME280;70018;47.838;16.490;2023-11-22T00:34:11;99232.56;;;6.87;81.55
55373;BME280;70018;47.838;16.490;2023-11-22T00:36:38;99241.34;;;6.92;81.38
55373;BME280;70018;47.838;16.490;2023-11-22T00:39:05;99250.13;;;6.98;80.82
55373;BME280;70018;47.838;16.490;2023-11-22T00:41:32;99248.53;;;7.09;81.07
55373;BME280;70018;47.838;16.490;2023-11-22T00:43:59;99255.03;;;7.29;80.55
55373;BME280;70018;47.838;16.490;2023-11-22T00:46:25;99252.72;;;7.31;81.05
55373;BME280;70018;47.838;16.490;2023-11-22T00:48:52;99255.16;;;7.32;80.78
55373;BME280;70018;47.838;16.490;2023-11-22T00:51:19;99245.09;;;7.36;80.92
55373;BME280;70018;47.838;16.490;2023-11-22T00:53:46;99249.88;;;7.39;80.77
55373;BME280;70018;47.838;16.490;2023-11-22T00:56:13;99247.72;;;7.45;81.38
55373;BME280;70018;47.838;16.490;2023-11-22T00:58:40;99252.03;;;7.46;80.42
55373;BME280;70018;47.838;16.490;2023-11-22T01:01:07;99250.44;;;7.45;80.17
55373;BME280;70018;47.838;16.490;2023-11-22T01:03:34;99255.47;;;7.43;81.57
55373;BME280;70018;47.838;16.490;2023-11-22T01:06:02;99247.34;;;7.46;81.56
55373;BME280;70018;47.838;16.490;2023-11-22T01:08:29;99241.31;;;7.41;81.04
55373;BME280;70018;47.838;16.490;2023-11-22T01:10:56;99256.25;;;7.43;81.04
55373;BME280;70018;47.838;16.490;2023-11-22T01:13:24;99254.69;;;7.42;80.94
55373;BME280;70018;47.838;16.490;2023-11-22T01:15:51;99257.06;;;7.44;80.47
55373;BME280;70018;47.838;16.490;2023-11-22T01:18:17;99263.81;;;7.34;80.30
55373;BME280;70018;47.838;16.490;2023-11-22T01:20:45;99268.03;;;7.32;80.30
55373;BME280;70018;47.838;16.490;2023-11-22T01:23:12;99267.91;;;7.28;80.45
55373;BME280;70018;47.838;16.490;2023-11-22T01:25:39;99271.69;;;7.24;80.84
55373;BME280;70018;47.838;16.490;2023-11-22T01:28:05;99276.72;;;7.09;82.46
55373;BME280;70018;47.838;16.490;2023-11-22T01:30:33;99276.13;;;7.04;82.08
55373;BME280;70018;47.838;16.490;2023-11-22T01:33:00;99275.91;;;6.97;81.75
55373;BME280;70018;47.838;16.490;2023-11-22T01:35:26;99273.03;;;6.81;81.80
55373;BME280;70018;47.838;16.490;2023-11-22T01:37:53;99270.50;;;6.76;83.58
55373;BME280;70018;47.838;16.490;2023-11-22T01:40:20;99275.09;;;6.72;82.96
55373;BME280;70018;47.838;16.490;2023-11-22T01:42:46;99274.28;;;6.72;83.60
55373;BME280;70018;47.838;16.490;2023-11-22T01:45:13;99260.25;;;6.73;83.67
55373;BME280;70018;47.838;16.490;2023-11-22T01:47:40;99267.09;;;6.67;83.03
55373;BME280;70018;47.838;16.490;2023-11-22T01:50:08;99276.09;;;6.68;83.51
55373;BME280;70018;47.838;16.490;2023-11-22T01:52:35;99284.41;;;6.71;84.44
55373;BME280;70018;47.838;16.490;2023-11-22T01:55:03;99274.41;;;6.75;84.34
55373;BME280;70018;47.838;16.490;2023-11-22T01:57:33;99282.28;;;6.77;83.80
55373;BME280;70018;47.838;16.490;2023-11-22T02:00:03;99298.47;;;6.82;84.24
55373;BME280;70018;47.838;16.490;2023-11-22T02:02:30;99282.84;;;6.82;83.79
55373;BME280;70018;47.838;16.490;2023-11-22T02:04:58;99286.41;;;6.83;83.63
55373;BME280;70018;47.838;16.490;2023-11-22T02:07:27;99279.75;;;6.84;83.88
55373;BME280;70018;47.838;16.490;2023-11-22T02:09:54;99291.88;;;6.83;83.92
55373;BME280;70018;47.838;16.490;2023-11-22T02:12:20;99304.41;;;6.84;84.21
55373;BME280;70018;47.838;16.490;2023-11-22T02:14:47;99306.22;;;6.80;83.88
55373;BME280;70018;47.838;16.490;2023-11-22T02:17:14;99313.50;;;6.76;83.44
55373;BME280;70018;47.838;16.490;2023-11-22T02:19:43;99300.03;;;6.71;83.49
55373;BME280;70018;47.838;16.490;2023-11-22T02:22:10;99314.41;;;6.68;83.31
55373;BME280;70018;47.838;16.490;2023-11-22T02:24:37;99320.88;;;6.63;82.84
55373;BME280;70018;47.838;16.490;2023-11-22T02:27:04;99330.44;;;6.57;82.42
55373;BME280;70018;47.838;16.490;2023-11-22T02:29:30;99321.84;;;6.46;82.65
55373;BME280;70018;47.838;16.490;2023-11-22T02:31:57;99325.25;;;6.43;82.32
55373;BME280;70018;47.838;16.490;2023-11-22T02:34:24;99342.22;;;6.37;82.97
55373;BME280;70018;47.838;16.490;2023-11-22T02:36:50;99338.44;;;6.29;83.10
55373;BME280;70018;47.838;16.490;2023-11-22T02:39:40;99336.38;;;6.26;83.43
55373;BME280;70018;47.838;16.490;2023-11-22T02:42:07;99342.69;;;6.18;83.40
55373;BME280;70018;47.838;16.490;2023-11-22T02:44:35;99333.78;;;6.09;83.84
55373;BME280;70018;47.838;16.490;2023-11-22T02:47:02;99337.72;;;6.00;83.88
55373;BME280;70018;47.838;16.490;2023-11-22T02:49:28;99344.19;;;5.95;83.96
55373;BME280;70018;47.838;16.490;2023-11-22T02:51:56;99342.47;;;5.91;84.26
55373;BME280;70018;47.838;16.490;2023-11-22T02:54:22;99333.66;;;5.85;84.52
55373;BME280;70018;47.838;16.490;2023-11-22T02:56:49;99339.28;;;5.80;84.95
55373;BME280;70018;47.838;16.490;2023-11-22T02:59:15;99338.81;;;5.78;85.16
55373;BME280;70018;47.838;16.490;2023-11-22T03:01:42;99349.25;;;5.76;84.82
55373;BME280;70018;47.838;16.490;2023-11-22T03:04:12;99349.59;;;5.74;85.30
55373;BME280;70018;47.838;16.490;2023-11-22T03:06:40;99348.53;;;5.67;85.55
55373;BME280;70018;47.838;16.490;2023-11-22T03:09:07;99356.72;;;5.67;85.35
55373;BME280;70018;47.838;16.490;2023-11-22T03:11:34;99360.09;;;5.64;85.16
55373;BME280;70018;47.838;16.490;2023-11-22T03:14:01;99355.31;;;5.61;85.25
55373;BME280;70018;47.838;16.490;2023-11-22T03:16:30;99364.47;;;5.56;85.31
55373;BME280;70018;47.838;16.490;2023-11-22T03:18:57;99372.56;;;5.53;85.32
55373;BME280;70018;47.838;16.490;2023-11-22T03:21:24;99370.47;;;5.50;85.68
55373;BME280;70018;47.838;16.490;2023-11-22T03:23:54;99378.19;;;5.48;85.67
55373;BME280;70018;47.838;16.490;2023-11-22T03:26:20;99383.50;;;5.44;85.79
55373;BME280;70018;47.838;16.490;2023-11-22T03:28:47;99388.84;;;5.41;85.66
55373;BME280;70018;47.838;16.490;2023-11-22T03:31:14;99387.22;;;5.40;86.16
55373;BME280;70018;47.838;16.490;2023-11-22T03:33:40;99389.78;;;5.36;86.28
55373;BME280;70018;47.838;16.490;2023-11-22T03:36:07;99394.78;;;5.34;86.24
55373;BME280;70018;47.838;16.490;2023-11-22T03:38:34;99389.19;;;5.31;86.57
55373;BME280;70018;47.838;16.490;2023-11-22T03:41:01;99401.41;;;5.25;87.18
55373;BME280;70018;47.838;16.490;2023-11-22T03:43:27;99397.25;;;5.18;87.66
55373;BME280;70018;47.838;16.490;2023-11-22T03:45:54;99406.44;;;5.14;88.50
55373;BME280;70018;47.838;16.490;2023-11-22T03:48:21;99410.78;;;5.06;88.65
55373;BME280;70018;47.838;16.490;2023-11-22T03:50:50;99401.66;;;5.02;88.63
55373;BME280;70018;47.838;16.490;2023-11-22T03:53:16;99402.47;;;4.94;89.89
55373;BME280;70018;47.838;16.490;2023-11-22T03:55:43;99399.91;;;4.89;90.00
55373;BME280;70018;47.838;16.490;2023-11-22T03:58:09;99418.38;;;4.84;91.45
55373;BME280;70018;47.838;16.490;2023-11-22T04:00:36;99425.94;;;4.78;92.41
55373;BME280;70018;47.838;16.490;2023-11-22T04:03:04;99421.31;;;4.70;93.11
55373;BME280;70018;47.838;16.490;2023-11-22T04:05:30;99422.56;;;4.64;94.24
55373;BME280;70018;47.838;16.490;2023-11-22T04:07:58;99407.81;;;4.56;94.46
55373;BME280;70018;47.838;16.490;2023-11-22T04:10:25;99423.56;;;4.51;95.02
55373;BME280;70018;47.838;16.490;2023-11-22T04:12:52;99423.41;;;4.47;95.85
55373;BME280;70018;47.838;16.490;2023-11-22T04:15:19;99411.84;;;4.42;96.12
55373;BME280;70018;47.838;16.490;2023-11-22T04:17:45;99413.16;;;4.36;96.14
55373;BME280;70018;47.838;16.490;2023-11-22T04:20:14;99423.53;;;4.34;96.96
55373;BME280;70018;47.838;16.490;2023-11-22T04:22:43;99423.41;;;4.30;97.10
55373;BME280;70018;47.838;16.490;2023-11-22T04:25:11;99420.03;;;4.25;96.93
55373;BME280;70018;47.838;16.490;2023-11-22T04:27:41;99435.28;;;4.26;97.65
55373;BME280;70018;47.838;16.490;2023-11-22T04:30:09;99433.19;;;4.23;97.24
55373;BME280;70018;47.838;16.490;2023-11-22T04:32:40;99447.91;;;4.22;97.03
55373;BME280;70018;47.838;16.490;2023-11-22T04:35:08;99453.38;;;4.22;96.99
55373;BME280;70018;47.838;16.490;2023-11-22T04:37:36;99455.59;;;4.20;96.15
55373;BME280;70018;47.838;16.490;2023-11-22T04:40:04;99466.38;;;4.16;96.05
55373;BME280;70018;47.838;16.490;2023-11-22T04:42:35;99485.25;;;4.13;95.70
55373;BME280;70018;47.838;16.490;2023-11-22T04:45:03;99475.47;;;4.12;95.73
55373;BME280;70018;47.838;16.490;2023-11-22T04:47:30;99498.41;;;4.11;95.71
55373;BME280;70018;47.838;16.490;2023-11-22T04:49:57;99478.53;;;4.10;96.38
55373;BME280;70018;47.838;16.490;2023-11-22T04:52:24;99484.31;;;4.09;95.56
55373;BME280;70018;47.838;16.490;2023-11-22T04:54:50;99507.69;;;4.10;95.94
55373;BME280;70018;47.838;16.490;2023-11-22T04:57:17;99509.94;;;4.08;94.53
55373;BME280;70018;47.838;16.490;2023-11-22T04:59:45;99512.03;;;4.11;94.44
55373;BME280;70018;47.838;16.490;2023-11-22T05:02:12;99525.66;;;4.11;94.19
55373;BME280;70018;47.838;16.490;2023-11-22T05:04:38;99525.19;;;4.09;94.49
55373;BME280;70018;47.838;16.490;2023-11-22T05:07:05;99520.03;;;4.07;94.23
55373;BME280;70018;47.838;16.490;2023-11-22T05:09:32;99524.66;;;4.07;93.81
55373;BME280;70018;47.838;16.490;2023-11-22T05:11:58;99524.19;;;4.05;93.83
55373;BME280;70018;47.838;16.490;2023-11-22T05:14:25;99523.38;;;4.04;94.09
55373;BME280;70018;47.838;16.490;2023-11-22T05:16:53;99529.97;;;4.03;93.95
55373;BME280;70018;47.838;16.490;2023-11-22T05:19:19;99522.59;;;4.04;93.38
55373;BME280;70018;47.838;16.490;2023-11-22T05:21:46;99525.13;;;4.00;93.32
55373;BME280;70018;47.838;16.490;2023-11-22T05:24:13;99518.88;;;4.00;93.58
55373;BME280;70018;47.838;16.490;2023-11-22T05:26:41;99519.50;;;3.97;93.25
55373;BME280;70018;47.838;16.490;2023-11-22T05:29:08;99508.59;;;3.97;93.42
55373;BME280;70018;47.838;16.490;2023-11-22T05:31:35;99505.88;;;3.97;92.51
55373;BME280;70018;47.838;16.490;2023-11-22T05:34:01;99509.56;;;3.92;92.78
55373;BME280;70018;47.838;16.490;2023-11-22T05:36:29;99494.97;;;3.88;92.99
55373;BME280;70018;47.838;16.490;2023-11-22T05:38:56;99487.75;;;3.83;93.34
55373;BME280;70018;47.838;16.490;2023-11-22T05:41:26;99499.09;;;3.77;93.18
55373;BME280;70018;47.838;16.490;2023-11-22T05:43:53;99485.00;;;3.75;93.17
55373;BME280;70018;47.838;16.490;2023-11-22T05:46:21;99489.28;;;3.67;93.02
55373;BME280;70018;47.838;16.490;2023-11-22T05:48:48;99512.00;;;3.63;93.45
55373;BME280;70018;47.838;16.490;2023-11-22T05:51:16;99546.13;;;3.60;93.05
55373;BME280;70018;47.838;16.490;2023-11-22T05:53:43;99527.69;;;3.57;92.86
55373;BME280;70018;47.838;16.490;2023-11-22T05:56:09;99553.13;;;3.53;92.89
55373;BME280;70018;47.838;16.490;2023-11-22T05:58:37;99553.94;;;3.53;93.13
55373;BME280;70018;47.838;16.490;2023-11-22T06:01:05;99560.31;;;3.49;93.12
55373;BME280;70018;47.838;16.490;2023-11-22T06:03:33;99576.81;;;3.52;92.90
55373;BME280;70018;47.838;16.490;2023-11-22T06:06:00;99588.19;;;3.54;92.74
55373;BME280;70018;47.838;16.490;2023-11-22T06:08:27;99592.41;;;3.60;92.73
55373;BME280;70018;47.838;16.490;2023-11-22T06:10:54;99582.00;;;3.62;92.37
55373;BME280;70018;47.838;16.490;2023-11-22T06:13:23;99582.50;;;3.64;91.96
55373;BME280;70018;47.838;16.490;2023-11-22T06:15:50;99557.38;;;3.67;92.16
55373;BME280;70018;47.838;16.490;2023-11-22T06:18:17;99576.41;;;3.67;90.56
55373;BME280;70018;47.838;16.490;2023-11-22T06:20:44;99578.34;;;3.67;89.65
55373;BME280;70018;47.838;16.490;2023-11-22T06:23:10;99595.00;;;3.65;88.94
55373;BME280;70018;47.838;16.490;2023-11-22T06:25:37;99584.56;;;3.59;89.29
55373;BME280;70018;47.838;16.490;2023-11-22T06:28:04;99582.13;;;3.57;88.68
55373;BME280;70018;47.838;16.490;2023-11-22T06:30:31;99589.63;;;3.52;88.38
55373;BME280;70018;47.838;16.490;2023-11-22T06:32:58;99596.19;;;3.51;88.55
55373;BME280;70018;47.838;16.490;2023-11-22T06:35:26;99608.81;;;3.47;88.24
55373;BME280;70018;47.838;16.490;2023-11-22T06:37:53;99626.06;;;3.42;88.65
55373;BME280;70018;47.838;16.490;2023-11-22T06:40:20;99623.72;;;3.49;89.14
55373;BME280;70018;47.838;16.490;2023-11-22T06:42:47;99643.78;;;3.53;88.32
55373;BME280;70018;47.838;16.490;2023-11-22T06:45:14;99654.19;;;3.51;88.08
55373;BME280;70018;47.838;16.490;2023-11-22T06:47:44;99659.44;;;3.48;88.33
55373;BME280;70018;47.838;16.490;2023-11-22T06:50:11;99683.81;;;3.53;87.81
55373;BME280;70018;47.838;16.490;2023-11-22T06:52:39;99691.41;;;3.64;88.29
55373;BME280;70018;47.838;16.490;2023-11-22T06:55:06;99708.75;;;3.68;88.36
55373;BME280;70018;47.838;16.490;2023-11-22T06:57:37;99706.28;;;3.80;89.06
55373;BME280;70018;47.838;16.490;2023-11-22T07:00:05;99721.75;;;3.94;88.71
55373;BME280;70018;47.838;16.490;2023-11-22T07:02:32;99729.16;;;4.02;89.05
55373;BME280;70018;47.838;16.490;2023-11-22T07:04:59;99741.56;;;4.08;89.35
55373;BME280;70018;47.838;16.490;2023-11-22T07:07:26;99748.38;;;4.19;89.36
55373;BME280;70018;47.838;16.490;2023-11-22T07:09:53;99752.13;;;4.31;89.61
55373;BME280;70018;47.838;16.490;2023-11-22T07:12:22;99763.22;;;4.35;89.60
55373;BME280;70018;47.838;16.490;2023-11-22T07:14:49;99760.63;;;4.30;88.98
55373;BME280;70018;47.838;16.490;2023-11-22T07:17:16;99767.81;;;4.26;89.28
55373;BME280;70018;47.838;16.490;2023-11-22T07:19:48;99781.94;;;4.28;89.10
55373;BME280;70018;47.838;16.490;2023-11-22T07:22:15;99775.25;;;4.12;88.63
55373;BME280;70018;47.838;16.490;2023-11-22T07:24:46;99776.63;;;4.23;88.93
55373;BME280;70018;47.838;16.490;2023-11-22T07:27:20;99781.56;;;4.21;88.89
55373;BME280;70018;47.838;16.490;2023-11-22T07:29:47;99794.53;;;4.15;88.18
55373;BME280;70018;47.838;16.490;2023-11-22T07:32:14;99801.06;;;4.14;87.04
55373;BME280;70018;47.838;16.490;2023-11-22T07:34:41;99805.88;;;4.09;86.81
55373;BME280;70018;47.838;16.490;2023-11-22T07:37:08;99787.88;;;4.08;86.90
55373;BME280;70018;47.838;16.490;2023-11-22T07:39:35;99802.00;;;4.10;87.57
55373;BME280;70018;47.838;16.490;2023-11-22T07:42:03;99810.06;;;4.15;87.38
55373;BME280;70018;47.838;16.490;2023-11-22T07:44:29;99812.78;;;4.15;86.95
55373;BME280;70018;47.838;16.490;2023-11-22T07:46:59;99823.31;;;4.08;87.06
55373;BME280;70018;47.838;16.490;2023-11-22T07:49:26;99815.38;;;3.98;87.25
55373;BME280;70018;47.838;16.490;2023-11-22T07:51:53;99813.88;;;3.91;86.82
55373;BME280;70018;47.838;16.490;2023-11-22T07:54:20;99808.31;;;3.97;87.36
55373;BME280;70018;47.838;16.490;2023-11-22T07:56:49;99809.56;;;3.90;86.71
55373;BME280;70018;47.838;16.490;2023-11-22T07:59:16;99819.84;;;3.94;87.28
55373;BME280;70018;47.838;16.490;2023-11-22T08:01:44;99824.25;;;4.03;87.12
55373;BME280;70018;47.838;16.490;2023-11-22T08:04:12;99812.91;;;4.10;86.94
55373;BME280;70018;47.838;16.490;2023-11-22T08:06:39;99825.06;;;4.04;87.67
55373;BME280;70018;47.838;16.490;2023-11-22T08:09:06;99816.38;;;4.02;87.21
55373;BME280;70018;47.838;16.490;2023-11-22T08:11:35;99833.97;;;3.96;87.73
55373;BME280;70018;47.838;16.490;2023-11-22T08:14:03;99830.44;;;3.95;87.42
55373;BME280;70018;47.838;16.490;2023-11-22T08:16:30;99839.66;;;3.85;86.93
55373;BME280;70018;47.838;16.490;2023-11-22T08:18:57;99872.44;;;3.80;87.07
55373;BME280;70018;47.838;16.490;2023-11-22T08:21:24;99874.69;;;3.78;86.75
55373;BME280;70018;47.838;16.490;2023-11-22T08:23:51;99890.38;;;3.81;86.64
55373;BME280;70018;47.838;16.490;2023-11-22T08:26:19;99902.31;;;3.72;86.83
55373;BME280;70018;47.838;16.490;2023-11-22T08:28:46;99897.78;;;3.67;86.99
55373;BME280;70018;47.838;16.490;2023-11-22T08:31:13;99890.09;;;3.69;86.95
55373;BME280;70018;47.838;16.490;2023-11-22T08:33:42;99897.56;;;3.77;86.92
55373;BME280;70018;47.838;16.490;2023-11-22T08:36:09;99885.03;;;3.90;86.25
55373;BME280;70018;47.838;16.490;2023-11-22T08:38:36;99893.31;;;3.99;85.22
55373;BME280;70018;47.838;16.490;2023-11-22T08:41:06;99902.22;;;4.13;84.75
55373;BME280;70018;47.838;16.490;2023-11-22T08:43:33;99894.31;;;4.25;84.44
55373;BME280;70018;47.838;16.490;2023-11-22T08:46:01;99909.56;;;4.26;84.78
55373;BME280;70018;47.838;16.490;2023-11-22T08:48:41;99901.31;;;4.17;82.63
55373;BME280;70018;47.838;16.490;2023-11-22T08:51:08;99910.28;;;4.18;82.71
55373;BME280;70018;47.838;16.490;2023-11-22T08:53:37;99916.25;;;4.20;82.77
55373;BME280;70018;47.838;16.490;2023-11-22T08:56:04;99906.88;;;4.12;82.32
55373;BME280;70018;47.838;16.490;2023-11-22T08:58:32;99913.56;;;4.06;82.63
55373;BME280;70018;47.838;16.490;2023-11-22T09:01:00;99918.22;;;4.06;82.96
55373;BME280;70018;47.838;16.490;2023-11-22T09:03:27;99919.41;;;4.00;81.32
55373;BME280;70018;47.838;16.490;2023-11-22T09:05:55;99919.72;;;3.98;81.77
55373;BME280;70018;47.838;16.490;2023-11-22T09:08:22;99915.38;;;4.11;81.02
55373;BME280;70018;47.838;16.490;2023-11-22T09:10:53;99897.72;;;4.08;80.85
55373;BME280;70018;47.838;16.490;2023-11-22T09:13:21;99917.06;;;4.07;80.12
55373;BME280;70018;47.838;16.490;2023-11-22T09:15:49;99909.41;;;4.09;80.33
55373;BME280;70018;47.838;16.490;2023-11-22T09:18:16;99940.59;;;4.16;79.42
55373;BME280;70018;47.838;16.490;2023-11-22T09:20:43;99922.00;;;4.18;80.05
55373;BME280;70018;47.838;16.490;2023-11-22T09:23:11;99928.09;;;4.37;80.17
55373;BME280;70018;47.838;16.490;2023-11-22T09:25:38;99930.16;;;4.76;77.28
55373;BME280;70018;47.838;16.490;2023-11-22T09:28:05;99933.88;;;5.02;76.11
55373;BME280;70018;47.838;16.490;2023-11-22T09:30:34;99935.00;;;4.79;75.66
55373;BME280;70018;47.838;16.490;2023-11-22T09:33:03;99927.13;;;4.55;76.72
55373;BME280;70018;47.838;16.490;2023-11-22T09:35:31;99933.88;;;4.36;76.96
55373;BME280;70018;47.838;16.490;2023-11-22T09:38:01;99949.53;;;4.30;76.81
55373;BME280;70018;47.838;16.490;2023-11-22T09:40:30;99932.31;;;4.21;77.42
55373;BME280;70018;47.838;16.490;2023-11-22T09:43:00;99935.16;;;4.16;77.83
55373;BME280;70018;47.838;16.490;2023-11-22T09:45:29;99934.44;;;4.11;77.06
55373;BME280;70018;47.838;16.490;2023-11-22T09:47:57;99921.69;;;4.20;77.66
55373;BME280;70018;47.838;16.490;2023-11-22T09:50:32;99910.31;;;4.40;77.27
55373;BME280;70018;47.838;16.490;2023-11-22T09:53:05;99916.91;;;4.61;76.70
55373;BME280;70018;47.838;16.490;2023-11-22T09:55:36;99905.69;;;4.40;74.94
55373;BME280;70018;47.838;16.490;2023-11-22T09:58:04;99894.44;;;4.42;75.95
55373;BME280;70018;47.838;16.490;2023-11-22T10:00:32;99888.25;;;4.28;76.96
55373;BME280;70018;47.838;16.490;2023-11-22T10:02:59;99888.69;;;4.43;76.57
55373;BME280;70018;47.838;16.490;2023-11-22T10:05:26;99903.41;;;4.20;76.39
55373;BME280;70018;47.838;16.490;2023-11-22T10:07:55;99909.22;;;4.05;75.52
55373;BME280;70018;47.838;16.490;2023-11-22T10:10:22;99931.13;;;4.14;76.07
55373;BME280;70018;47.838;16.490;2023-11-22T10:12:49;99930.69;;;4.07;74.48
55373;BME280;70018;47.838;16.490;2023-11-22T10:15:16;99928.09;;;4.02;74.55
55373;BME280;70018;47.838;16.490;2023-11-22T10:17:55;99915.06;;;4.12;74.89
55373;BME280;70018;47.838;16.490;2023-11-22T10:20:43;99937.78;;;4.08;74.04
55373;BME280;70018;47.838;16.490;2023-11-22T10:23:14;99940.38;;;4.13;74.68
55373;BME280;70018;47.838;16.490;2023-11-22T10:25:45;99944.97;;;4.04;74.31
55373;BME280;70018;47.838;16.490;2023-11-22T10:28:14;99948.19;;;4.06;74.49
55373;BME280;70018;47.838;16.490;2023-11-22T10:30:40;99947.06;;;4.07;74.48
55373;BME280;70018;47.838;16.490;2023-11-22T10:33:12;99957.88;;;3.98;74.53
55373;BME280;70018;47.838;16.490;2023-11-22T10:35:44;99973.03;;;3.90;74.43
55373;BME280;70018;47.838;16.490;2023-11-22T10:38:17;99961.63;;;3.88;74.67
55373;BME280;70018;47.838;16.490;2023-11-22T10:40:45;99993.63;;;3.83;74.31
55373;BME280;70018;47.838;16.490;2023-11-22T10:43:12;99989.56;;;3.80;74.57
55373;BME280;70018;47.838;16.490;2023-11-22T10:45:41;99998.25;;;3.82;74.62
55373;BME280;70018;47.838;16.490;2023-11-22T10:48:16;99999.88;;;3.83;74.25
55373;BME280;70018;47.838;16.490;2023-11-22T10:50:44;99989.25;;;3.82;74.57
55373;BME280;70018;47.838;16.490;2023-11-22T10:53:12;99987.13;;;3.79;74.87
55373;BME280;70018;47.838;16.490;2023-11-22T10:55:45;99988.16;;;3.97;74.62
55373;BME280;70018;47.838;16.490;2023-11-22T10:58:17;99997.84;;;4.03;74.05
55373;BME280;70018;47.838;16.490;2023-11-22T11:00:46;100006.00;;;4.03;73.50
55373;BME280;70018;47.838;16.490;2023-11-22T11:03:20;99998.94;;;4.02;73.35
55373;BME280;70018;47.838;16.490;2023-11-22T11:06:02;100001.47;;;3.98;72.74
55373;BME280;70018;47.838;16.490;2023-11-22T11:08:32;100025.28;;;3.92;73.94
55373;BME280;70018;47.838;16.490;2023-11-22T11:11:00;100022.25;;;3.94;72.93
55373;BME280;70018;47.838;16.490;2023-11-22T11:13:30;100017.22;;;3.87;72.95
55373;BME280;70018;47.838;16.490;2023-11-22T11:15:57;100033.25;;;3.89;73.60
55373;BME280;70018;47.838;16.490;2023-11-22T11:18:25;100035.38;;;3.92;73.62
55373;BME280;70018;47.838;16.490;2023-11-22T11:20:55;100025.88;;;3.89;73.06
55373;BME280;70018;47.838;16.490;2023-11-22T11:23:24;100030.44;;;3.94;73.35
55373;BME280;70018;47.838;16.490;2023-11-22T11:25:59;100031.94;;;4.00;72.85
55373;BME280;70018;47.838;16.490;2023-11-22T11:28:50;100023.88;;;4.09;72.53
55373;BME280;70018;47.838;16.490;2023-11-22T11:31:21;100053.66;;;4.19;71.90
55373;BME280;70018;47.838;16.490;2023-11-22T11:36:23;100037.09;;;4.15;72.66
55373;BME280;70018;47.838;16.490;2023-11-22T11:38:54;100079.00;;;4.06;73.61
55373;BME280;70018;47.838;16.490;2023-11-22T11:41:29;100068.47;;;3.99;74.24
55373;BME280;70018;47.838;16.490;2023-11-22T11:43:56;100087.88;;;3.98;74.60
55373;BME280;70018;47.838;16.490;2023-11-22T11:46:24;100067.69;;;3.99;74.57
55373;BME280;70018;47.838;16.490;2023-11-22T11:48:53;100065.84;;;3.94;74.36
55373;BME280;70018;47.838;16.490;2023-11-22T11:51:25;100078.16;;;3.91;75.12
55373;BME280;70018;47.838;16.490;2023-11-22T11:53:52;100078.16;;;3.91;75.05
55373;BME280;70018;47.838;16.490;2023-11-22T11:56:20;100086.84;;;4.07;75.36
55373;BME280;70018;47.838;16.490;2023-11-22T11:58:49;100075.75;;;4.17;74.54
55373;BME280;70018;47.838;16.490;2023-11-22T12:01:17;100092.22;;;4.26;74.23
55373;BME280;70018;47.838;16.490;2023-11-22T12:03:44;100093.00;;;4.26;73.02
55373;BME280;70018;47.838;16.490;2023-11-22T12:06:17;100118.34;;;4.27;72.32
55373;BME280;70018;47.838;16.490;2023-11-22T12:08:46;100105.94;;;4.21;72.51
55373;BME280;70018;47.838;16.490;2023-11-22T12:11:14;100086.47;;;4.14;72.77
55373;BME280;70018;47.838;16.490;2023-11-22T12:13:42;100103.41;;;4.24;73.37
55373;BME280;70018;47.838;16.490;2023-11-22T12:16:16;100102.72;;;4.46;71.73
55373;BME280;70018;47.838;16.490;2023-11-22T12:18:46;100091.38;;;4.52;71.22
55373;BME280;70018;47.838;16.490;2023-11-22T12:21:17;100096.03;;;4.52;70.98
55373;BME280;70018;47.838;16.490;2023-11-22T12:23:46;100108.28;;;4.41;71.25
55373;BME280;70018;47.838;16.490;2023-11-22T12:26:17;100120.06;;;4.23;72.07
55373;BME280;70018;47.838;16.490;2023-11-22T12:28:49;100117.34;;;4.23;72.77
55373;BME280;70018;47.838;16.490;2023-11-22T12:31:29;100115.81;;;4.17;72.15
55373;BME280;70018;47.838;16.490;2023-11-22T12:34:02;100118.16;;;4.10;72.62
55373;BME280;70018;47.838;16.490;2023-11-22T12:36:29;100120.06;;;4.09;72.88
55373;BME280;70018;47.838;16.490;2023-11-22T12:38:56;100116.34;;;4.05;73.37
55373;BME280;70018;47.838;16.490;2023-11-22T12:41:26;100120.16;;;4.04;73.64
55373;BME280;70018;47.838;16.490;2023-11-22T12:44:06;100137.72;;;3.98;74.00
55373;BME280;70018;47.838;16.490;2023-11-22T12:46:53;100120.34;;;3.94;74.24
55373;BME280;70018;47.838;16.490;2023-11-22T12:49:28;100109.25;;;3.90;73.94
55373;BME280;70018;47.838;16.490;2023-11-22T12:51:55;100142.38;;;3.98;73.98
55373;BME280;70018;47.838;16.490;2023-11-22T12:54:23;100110.06;;;4.05;74.20
55373;BME280;70018;47.838;16.490;2023-11-22T12:56:51;100123.81;;;4.13;73.51
55373;BME280;70018;47.838;16.490;2023-11-22T12:59:20;100127.00;;;4.02;73.48
55373;BME280;70018;47.838;16.490;2023-11-22T13:01:47;100106.13;;;3.83;73.88
55373;BME280;70018;47.838;16.490;2023-11-22T13:04:14;100126.28;;;3.69;74.77
55373;BME280;70018;47.838;16.490;2023-11-22T13:06:42;100111.88;;;3.50;75.49